sensor_id;sensor_type;location;lat;lon;timestamp;P1;durP1;ratioP1;P2;durP2;ratioP2
11305;SDS011;5708;50.660;6.778;2022-11-20T00:00:45;48.47;;;24.08;;
11305;SDS011;5708;50.660;6.778;2022-11-20T00:03:10;46.45;;;24.77;;
11305;SDS011;5708;50.660;6.778;2022-11-20T00:05:36;50.10;;;24.05;;
11305;SDS011;5708;50.660;6.778;2022-11-20T00:08:01;47.38;;;24.10;;
11305;SDS011;5708;50.660;6.778;2022-11-20T00:10:26;46.05;;;23.55;;
11305;SDS011;5708;50.660;6.778;2022-11-20T00:12:52;48.08;;;23.38;;
11305;SDS011;5708;50.660;6.778;2022-11-20T00:15:17;49.05;;;24.45;;
11305;SDS011;5708;50.660;6.778;2022-11-20T00:17:42;48.55;;;24.33;;
11305;SDS011;5708;50.660;6.778;2022-11-20T00:20:08;46.05;;;23.63;;
11305;SDS011;5708;50.660;6.778;2022-11-20T00:22:33;49.88;;;23.90;;
11305;SDS011;5708;50.660;6.778;2022-11-20T00:24:59;45.28;;;22.88;;
11305;SDS011;5708;50.660;6.778;2022-11-20T00:27:24;46.55;;;24.27;;
11305;SDS011;5708;50.660;6.778;2022-11-20T00:29:49;48.47;;;24.20;;
11305;SDS011;5708;50.660;6.778;2022-11-20T00:32:15;49.45;;;24.63;;
11305;SDS011;5708;50.660;6.778;2022-11-20T00:34:40;47.25;;;23.83;;
11305;SDS011;5708;50.660;6.778;2022-11-20T00:37:05;47.97;;;23.65;;
11305;SDS011;5708;50.660;6.778;2022-11-20T00:39:31;48.10;;;23.38;;
11305;SDS011;5708;50.660;6.778;2022-11-20T00:41:56;51.58;;;24.88;;
11305;SDS011;5708;50.660;6.778;2022-11-20T00:44:21;47.88;;;23.27;;
11305;SDS011;5708;50.660;6.778;2022-11-20T00:46:46;52.25;;;25.48;;
11305;SDS011;5708;50.660;6.778;2022-11-20T00:49:12;50.88;;;25.08;;
11305;SDS011;5708;50.660;6.778;2022-11-20T00:51:37;48.45;;;23.52;;
11305;SDS011;5708;50.660;6.778;2022-11-20T00:54:02;51.42;;;24.95;;
11305;SDS011;5708;50.660;6.778;2022-11-20T00:56:28;47.30;;;24.15;;
11305;SDS011;5708;50.660;6.778;2022-11-20T00:58:53;51.08;;;25.38;;
11305;SDS011;5708;50.660;6.778;2022-11-20T01:01:20;53.75;;;25.13;;
11305;SDS011;5708;50.660;6.778;2022-11-20T01:03:50;53.78;;;25.00;;
11305;SDS011;5708;50.660;6.778;2022-11-20T01:06:17;53.30;;;26.00;;
11305;SDS011;5708;50.660;6.778;2022-11-20T01:08:44;47.97;;;23.50;;
11305;SDS011;5708;50.660;6.778;2022-11-20T01:11:14;54.42;;;25.40;;
11305;SDS011;5708;50.660;6.778;2022-11-20T01:13:44;50.92;;;24.23;;
11305;SDS011;5708;50.660;6.778;2022-11-20T01:16:14;53.65;;;25.65;;
11305;SDS011;5708;50.660;6.778;2022-11-20T01:18:46;53.55;;;25.83;;
11305;SDS011;5708;50.660;6.778;2022-11-20T01:21:14;52.38;;;25.35;;
11305;SDS011;5708;50.660;6.778;2022-11-20T01:23:42;49.25;;;24.88;;
11305;SDS011;5708;50.660;6.778;2022-11-20T01:26:09;55.80;;;25.90;;
11305;SDS011;5708;50.660;6.778;2022-11-20T01:28:36;52.03;;;23.63;;
11305;SDS011;5708;50.660;6.778;2022-11-20T01:31:09;52.38;;;24.90;;
11305;SDS011;5708;50.660;6.778;2022-11-20T01:33:39;50.72;;;24.88;;
11305;SDS011;5708;50.660;6.778;2022-11-20T01:36:06;55.75;;;25.58;;
11305;SDS011;5708;50.660;6.778;2022-11-20T01:38:31;51.65;;;25.50;;
11305;SDS011;5708;50.660;6.778;2022-11-20T01:40:57;52.97;;;25.60;;
11305;SDS011;5708;50.660;6.778;2022-11-20T01:43:22;60.75;;;26.27;;
11305;SDS011;5708;50.660;6.778;2022-11-20T01:45:53;53.08;;;26.35;;
11305;SDS011;5708;50.660;6.778;2022-11-20T01:48:21;53.47;;;24.67;;
11305;SDS011;5708;50.660;6.778;2022-11-20T01:50:47;53.08;;;25.42;;
11305;SDS011;5708;50.660;6.778;2022-11-20T01:53:13;51.00;;;24.45;;
11305;SDS011;5708;50.660;6.778;2022-11-20T01:55:45;54.75;;;25.13;;
11305;SDS011;5708;50.660;6.778;2022-11-20T01:58:15;51.13;;;24.50;;
11305;SDS011;5708;50.660;6.778;2022-11-20T02:00:41;54.92;;;26.77;;
11305;SDS011;5708;50.660;6.778;2022-11-20T02:03:08;57.13;;;26.30;;
11305;SDS011;5708;50.660;6.778;2022-11-20T02:08:21;48.58;;;23.73;;
11305;SDS011;5708;50.660;6.778;2022-11-20T02:10:48;50.97;;;23.75;;
11305;SDS011;5708;50.660;6.778;2022-11-20T02:13:13;49.63;;;23.95;;
11305;SDS011;5708;50.660;6.778;2022-11-20T02:15:57;51.83;;;24.63;;
11305;SDS011;5708;50.660;6.778;2022-11-20T02:18:23;53.05;;;24.10;;
11305;SDS011;5708;50.660;6.778;2022-11-20T02:20:49;45.80;;;23.17;;
11305;SDS011;5708;50.660;6.778;2022-11-20T02:23:22;53.95;;;24.90;;
11305;SDS011;5708;50.660;6.778;2022-11-20T02:25:51;48.38;;;23.73;;
11305;SDS011;5708;50.660;6.778;2022-11-20T02:28:17;51.97;;;24.45;;
11305;SDS011;5708;50.660;6.778;2022-11-20T02:30:43;51.08;;;24.92;;
11305;SDS011;5708;50.660;6.778;2022-11-20T02:33:08;54.90;;;24.73;;
11305;SDS011;5708;50.660;6.778;2022-11-20T02:37:59;51.87;;;24.63;;
11305;SDS011;5708;50.660;6.778;2022-11-20T02:40:26;48.97;;;22.98;;
11305;SDS011;5708;50.660;6.778;2022-11-20T02:42:52;53.15;;;24.25;;
11305;SDS011;5708;50.660;6.778;2022-11-20T02:45:18;51.25;;;24.75;;
11305;SDS011;5708;50.660;6.778;2022-11-20T02:47:43;55.33;;;24.60;;
11305;SDS011;5708;50.660;6.778;2022-11-20T02:50:08;51.55;;;24.25;;
11305;SDS011;5708;50.660;6.778;2022-11-20T02:52:34;54.67;;;24.90;;
11305;SDS011;5708;50.660;6.778;2022-11-20T02:54:59;54.00;;;25.15;;
11305;SDS011;5708;50.660;6.778;2022-11-20T02:57:25;52.72;;;25.50;;
11305;SDS011;5708;50.660;6.778;2022-11-20T02:59:50;54.60;;;26.30;;
11305;SDS011;5708;50.660;6.778;2022-11-20T03:02:16;54.38;;;24.52;;
11305;SDS011;5708;50.660;6.778;2022-11-20T03:04:41;60.65;;;27.02;;
11305;SDS011;5708;50.660;6.778;2022-11-20T03:07:07;54.30;;;24.13;;
11305;SDS011;5708;50.660;6.778;2022-11-20T03:09:33;55.35;;;23.40;;
11305;SDS011;5708;50.660;6.778;2022-11-20T03:11:58;54.88;;;23.80;;
11305;SDS011;5708;50.660;6.778;2022-11-20T03:14:23;58.03;;;26.60;;
11305;SDS011;5708;50.660;6.778;2022-11-20T03:16:49;55.70;;;25.65;;
11305;SDS011;5708;50.660;6.778;2022-11-20T03:19:14;59.00;;;25.40;;
11305;SDS011;5708;50.660;6.778;2022-11-20T03:21:39;59.45;;;27.55;;
11305;SDS011;5708;50.660;6.778;2022-11-20T03:24:05;59.33;;;26.08;;
11305;SDS011;5708;50.660;6.778;2022-11-20T03:26:31;57.42;;;24.75;;
11305;SDS011;5708;50.660;6.778;2022-11-20T03:28:57;58.50;;;26.23;;
11305;SDS011;5708;50.660;6.778;2022-11-20T03:31:24;59.10;;;25.75;;
11305;SDS011;5708;50.660;6.778;2022-11-20T03:33:51;62.35;;;27.42;;
11305;SDS011;5708;50.660;6.778;2022-11-20T03:36:17;54.95;;;25.83;;
11305;SDS011;5708;50.660;6.778;2022-11-20T03:38:43;58.28;;;26.38;;
11305;SDS011;5708;50.660;6.778;2022-11-20T03:41:13;55.00;;;26.58;;
11305;SDS011;5708;50.660;6.778;2022-11-20T03:43:39;59.50;;;26.15;;
11305;SDS011;5708;50.660;6.778;2022-11-20T03:46:05;56.50;;;25.05;;
11305;SDS011;5708;50.660;6.778;2022-11-20T03:48:31;52.65;;;24.17;;
11305;SDS011;5708;50.660;6.778;2022-11-20T03:51:10;54.10;;;25.52;;
11305;SDS011;5708;50.660;6.778;2022-11-20T03:53:55;51.78;;;24.45;;
11305;SDS011;5708;50.660;6.778;2022-11-20T03:56:25;55.70;;;26.13;;
11305;SDS011;5708;50.660;6.778;2022-11-20T03:58:52;53.50;;;24.08;;
11305;SDS011;5708;50.660;6.778;2022-11-20T04:01:21;50.97;;;23.63;;
11305;SDS011;5708;50.660;6.778;2022-11-20T04:03:48;53.25;;;24.33;;
11305;SDS011;5708;50.660;6.778;2022-11-20T04:06:16;57.80;;;25.55;;
11305;SDS011;5708;50.660;6.778;2022-11-20T04:08:45;56.22;;;25.30;;
11305;SDS011;5708;50.660;6.778;2022-11-20T04:11:16;51.80;;;24.05;;
11305;SDS011;5708;50.660;6.778;2022-11-20T04:13:45;53.92;;;25.65;;
11305;SDS011;5708;50.660;6.778;2022-11-20T04:16:11;61.08;;;25.08;;
11305;SDS011;5708;50.660;6.778;2022-11-20T04:18:37;53.00;;;25.00;;
11305;SDS011;5708;50.660;6.778;2022-11-20T04:21:02;57.15;;;25.05;;
11305;SDS011;5708;50.660;6.778;2022-11-20T04:23:29;57.83;;;25.48;;
11305;SDS011;5708;50.660;6.778;2022-11-20T04:25:54;58.25;;;25.00;;
11305;SDS011;5708;50.660;6.778;2022-11-20T04:28:20;55.88;;;25.13;;
11305;SDS011;5708;50.660;6.778;2022-11-20T04:30:45;59.13;;;25.90;;
11305;SDS011;5708;50.660;6.778;2022-11-20T04:33:10;56.45;;;25.40;;
11305;SDS011;5708;50.660;6.778;2022-11-20T04:35:36;58.83;;;25.45;;
11305;SDS011;5708;50.660;6.778;2022-11-20T04:38:02;54.33;;;25.27;;
11305;SDS011;5708;50.660;6.778;2022-11-20T04:40:27;54.30;;;25.23;;
11305;SDS011;5708;50.660;6.778;2022-11-20T04:42:53;57.08;;;25.50;;
11305;SDS011;5708;50.660;6.778;2022-11-20T04:45:19;55.42;;;25.38;;
11305;SDS011;5708;50.660;6.778;2022-11-20T04:47:44;54.25;;;25.80;;
11305;SDS011;5708;50.660;6.778;2022-11-20T04:50:10;55.92;;;24.52;;
11305;SDS011;5708;50.660;6.778;2022-11-20T04:52:35;56.13;;;25.92;;
11305;SDS011;5708;50.660;6.778;2022-11-20T04:55:00;51.58;;;24.50;;
11305;SDS011;5708;50.660;6.778;2022-11-20T04:57:25;54.15;;;25.05;;
11305;SDS011;5708;50.660;6.778;2022-11-20T04:59:51;53.05;;;24.60;;
11305;SDS011;5708;50.660;6.778;2022-11-20T05:02:16;57.20;;;25.92;;
11305;SDS011;5708;50.660;6.778;2022-11-20T05:04:41;51.03;;;24.05;;
11305;SDS011;5708;50.660;6.778;2022-11-20T05:07:07;55.13;;;23.98;;
11305;SDS011;5708;50.660;6.778;2022-11-20T05:09:32;52.05;;;24.08;;
11305;SDS011;5708;50.660;6.778;2022-11-20T05:11:57;53.30;;;24.23;;
11305;SDS011;5708;50.660;6.778;2022-11-20T05:14:22;54.60;;;24.65;;
11305;SDS011;5708;50.660;6.778;2022-11-20T05:16:48;55.53;;;25.33;;
11305;SDS011;5708;50.660;6.778;2022-11-20T05:19:13;55.28;;;25.65;;
11305;SDS011;5708;50.660;6.778;2022-11-20T05:21:38;49.33;;;22.98;;
11305;SDS011;5708;50.660;6.778;2022-11-20T05:24:04;55.05;;;25.10;;
11305;SDS011;5708;50.660;6.778;2022-11-20T05:26:29;50.28;;;24.55;;
11305;SDS011;5708;50.660;6.778;2022-11-20T05:28:54;56.75;;;25.65;;
11305;SDS011;5708;50.660;6.778;2022-11-20T05:31:21;56.92;;;25.60;;
11305;SDS011;5708;50.660;6.778;2022-11-20T05:33:48;51.13;;;24.63;;
11305;SDS011;5708;50.660;6.778;2022-11-20T05:36:13;53.13;;;24.42;;
11305;SDS011;5708;50.660;6.778;2022-11-20T05:38:39;56.15;;;24.90;;
11305;SDS011;5708;50.660;6.778;2022-11-20T05:41:06;50.53;;;23.75;;
11305;SDS011;5708;50.660;6.778;2022-11-20T05:43:35;54.95;;;24.45;;
11305;SDS011;5708;50.660;6.778;2022-11-20T05:46:02;55.50;;;25.75;;
11305;SDS011;5708;50.660;6.778;2022-11-20T05:48:28;59.05;;;25.92;;
11305;SDS011;5708;50.660;6.778;2022-11-20T05:50:53;56.38;;;24.98;;
11305;SDS011;5708;50.660;6.778;2022-11-20T05:53:19;52.50;;;24.83;;
11305;SDS011;5708;50.660;6.778;2022-11-20T05:55:44;50.20;;;24.67;;
11305;SDS011;5708;50.660;6.778;2022-11-20T05:58:09;53.85;;;23.85;;
11305;SDS011;5708;50.660;6.778;2022-11-20T06:00:35;56.60;;;26.27;;
11305;SDS011;5708;50.660;6.778;2022-11-20T06:03:00;53.92;;;24.92;;
11305;SDS011;5708;50.660;6.778;2022-11-20T06:05:25;50.85;;;24.63;;
11305;SDS011;5708;50.660;6.778;2022-11-20T06:07:51;57.28;;;26.00;;
11305;SDS011;5708;50.660;6.778;2022-11-20T06:10:16;59.47;;;26.25;;
11305;SDS011;5708;50.660;6.778;2022-11-20T06:12:41;54.53;;;24.35;;
11305;SDS011;5708;50.660;6.778;2022-11-20T06:15:07;51.88;;;24.08;;
11305;SDS011;5708;50.660;6.778;2022-11-20T06:17:32;54.28;;;24.23;;
11305;SDS011;5708;50.660;6.778;2022-11-20T06:19:58;59.55;;;25.88;;
11305;SDS011;5708;50.660;6.778;2022-11-20T06:22:23;57.28;;;25.40;;
11305;SDS011;5708;50.660;6.778;2022-11-20T06:24:48;60.38;;;25.80;;
11305;SDS011;5708;50.660;6.778;2022-11-20T06:27:14;61.03;;;27.42;;
11305;SDS011;5708;50.660;6.778;2022-11-20T06:29:39;55.92;;;25.30;;
11305;SDS011;5708;50.660;6.778;2022-11-20T06:32:04;54.67;;;26.05;;
11305;SDS011;5708;50.660;6.778;2022-11-20T06:34:29;55.70;;;25.58;;
11305;SDS011;5708;50.660;6.778;2022-11-20T06:36:55;54.10;;;24.30;;
11305;SDS011;5708;50.660;6.778;2022-11-20T06:39:20;58.38;;;26.17;;
11305;SDS011;5708;50.660;6.778;2022-11-20T06:41:45;60.13;;;26.35;;
11305;SDS011;5708;50.660;6.778;2022-11-20T06:44:11;58.10;;;25.23;;
11305;SDS011;5708;50.660;6.778;2022-11-20T06:46:36;54.08;;;24.55;;
11305;SDS011;5708;50.660;6.778;2022-11-20T06:49:01;59.50;;;25.90;;
11305;SDS011;5708;50.660;6.778;2022-11-20T06:51:27;58.70;;;25.60;;
11305;SDS011;5708;50.660;6.778;2022-11-20T06:53:52;53.10;;;25.27;;
11305;SDS011;5708;50.660;6.778;2022-11-20T06:56:18;57.83;;;26.55;;
11305;SDS011;5708;50.660;6.778;2022-11-20T06:58:43;53.20;;;25.40;;
11305;SDS011;5708;50.660;6.778;2022-11-20T07:01:09;61.13;;;26.10;;
11305;SDS011;5708;50.660;6.778;2022-11-20T07:03:36;57.72;;;26.23;;
11305;SDS011;5708;50.660;6.778;2022-11-20T07:06:02;54.97;;;24.67;;
11305;SDS011;5708;50.660;6.778;2022-11-20T07:08:27;59.38;;;25.40;;
11305;SDS011;5708;50.660;6.778;2022-11-20T07:10:56;57.75;;;25.27;;
11305;SDS011;5708;50.660;6.778;2022-11-20T07:13:23;54.75;;;25.08;;
11305;SDS011;5708;50.660;6.778;2022-11-20T07:15:48;57.22;;;24.73;;
11305;SDS011;5708;50.660;6.778;2022-11-20T07:18:14;54.15;;;24.33;;
11305;SDS011;5708;50.660;6.778;2022-11-20T07:20:39;56.25;;;25.05;;
11305;SDS011;5708;50.660;6.778;2022-11-20T07:23:04;53.75;;;23.40;;
11305;SDS011;5708;50.660;6.778;2022-11-20T07:25:30;54.15;;;24.73;;
11305;SDS011;5708;50.660;6.778;2022-11-20T07:27:58;52.80;;;23.48;;
11305;SDS011;5708;50.660;6.778;2022-11-20T07:30:25;54.28;;;24.15;;
11305;SDS011;5708;50.660;6.778;2022-11-20T07:32:51;51.90;;;23.42;;
11305;SDS011;5708;50.660;6.778;2022-11-20T07:35:17;50.03;;;23.35;;
11305;SDS011;5708;50.660;6.778;2022-11-20T07:37:42;54.35;;;24.55;;
11305;SDS011;5708;50.660;6.778;2022-11-20T07:40:07;50.45;;;23.65;;
11305;SDS011;5708;50.660;6.778;2022-11-20T07:42:33;50.10;;;22.52;;
11305;SDS011;5708;50.660;6.778;2022-11-20T07:44:58;45.22;;;22.40;;
11305;SDS011;5708;50.660;6.778;2022-11-20T07:47:24;49.80;;;23.42;;
11305;SDS011;5708;50.660;6.778;2022-11-20T07:49:49;46.33;;;22.77;;
11305;SDS011;5708;50.660;6.778;2022-11-20T07:52:15;52.05;;;24.15;;
11305;SDS011;5708;50.660;6.778;2022-11-20T07:54:40;48.13;;;22.65;;
11305;SDS011;5708;50.660;6.778;2022-11-20T07:57:05;44.67;;;21.60;;
11305;SDS011;5708;50.660;6.778;2022-11-20T07:59:31;47.53;;;22.65;;
11305;SDS011;5708;50.660;6.778;2022-11-20T08:01:56;48.78;;;22.73;;
11305;SDS011;5708;50.660;6.778;2022-11-20T08:04:21;46.35;;;21.20;;
11305;SDS011;5708;50.660;6.778;2022-11-20T08:06:48;46.53;;;21.85;;
11305;SDS011;5708;50.660;6.778;2022-11-20T08:09:13;47.15;;;22.80;;
11305;SDS011;5708;50.660;6.778;2022-11-20T08:11:39;46.28;;;22.23;;
11305;SDS011;5708;50.660;6.778;2022-11-20T08:14:42;47.80;;;22.52;;
11305;SDS011;5708;50.660;6.778;2022-11-20T08:17:08;43.92;;;20.90;;
11305;SDS011;5708;50.660;6.778;2022-11-20T08:19:33;47.90;;;22.45;;
11305;SDS011;5708;50.660;6.778;2022-11-20T08:21:58;48.47;;;21.85;;
11305;SDS011;5708;50.660;6.778;2022-11-20T08:24:23;47.42;;;23.05;;
11305;SDS011;5708;50.660;6.778;2022-11-20T08:26:51;44.75;;;21.92;;
11305;SDS011;5708;50.660;6.778;2022-11-20T08:29:16;43.05;;;21.38;;
11305;SDS011;5708;50.660;6.778;2022-11-20T08:31:42;46.92;;;21.88;;
11305;SDS011;5708;50.660;6.778;2022-11-20T08:34:07;41.45;;;20.65;;
11305;SDS011;5708;50.660;6.778;2022-11-20T08:36:33;47.33;;;21.83;;
11305;SDS011;5708;50.660;6.778;2022-11-20T08:38:59;42.22;;;19.73;;
11305;SDS011;5708;50.660;6.778;2022-11-20T08:41:25;46.60;;;21.95;;
11305;SDS011;5708;50.660;6.778;2022-11-20T08:43:55;44.42;;;21.52;;
11305;SDS011;5708;50.660;6.778;2022-11-20T08:46:25;45.97;;;21.52;;
11305;SDS011;5708;50.660;6.778;2022-11-20T08:48:52;45.58;;;21.05;;
11305;SDS011;5708;50.660;6.778;2022-11-20T08:51:19;43.35;;;19.95;;
11305;SDS011;5708;50.660;6.778;2022-11-20T08:53:45;39.33;;;20.05;;
11305;SDS011;5708;50.660;6.778;2022-11-20T08:56:10;40.35;;;19.98;;
11305;SDS011;5708;50.660;6.778;2022-11-20T08:58:37;44.85;;;21.30;;
11305;SDS011;5708;50.660;6.778;2022-11-20T09:01:03;42.90;;;20.35;;
11305;SDS011;5708;50.660;6.778;2022-11-20T09:03:28;38.72;;;19.50;;
11305;SDS011;5708;50.660;6.778;2022-11-20T09:06:00;41.17;;;19.75;;
11305;SDS011;5708;50.660;6.778;2022-11-20T09:08:26;42.78;;;19.73;;
11305;SDS011;5708;50.660;6.778;2022-11-20T09:10:52;48.13;;;24.27;;
11305;SDS011;5708;50.660;6.778;2022-11-20T09:13:19;41.65;;;21.08;;
11305;SDS011;5708;50.660;6.778;2022-11-20T09:15:45;38.42;;;19.38;;
11305;SDS011;5708;50.660;6.778;2022-11-20T09:18:10;36.65;;;18.02;;
11305;SDS011;5708;50.660;6.778;2022-11-20T09:20:35;42.58;;;19.00;;
11305;SDS011;5708;50.660;6.778;2022-11-20T09:23:01;37.85;;;19.27;;
11305;SDS011;5708;50.660;6.778;2022-11-20T09:25:27;38.92;;;18.73;;
11305;SDS011;5708;50.660;6.778;2022-11-20T09:27:55;38.38;;;19.58;;
11305;SDS011;5708;50.660;6.778;2022-11-20T09:30:22;40.30;;;18.00;;
11305;SDS011;5708;50.660;6.778;2022-11-20T09:32:47;38.75;;;19.70;;
11305;SDS011;5708;50.660;6.778;2022-11-20T09:35:12;40.28;;;20.45;;
11305;SDS011;5708;50.660;6.778;2022-11-20T09:37:39;39.63;;;19.88;;
11305;SDS011;5708;50.660;6.778;2022-11-20T09:40:04;39.97;;;20.88;;
11305;SDS011;5708;50.660;6.778;2022-11-20T09:51:21;40.88;;;20.33;;
11305;SDS011;5708;50.660;6.778;2022-11-20T09:56:40;41.92;;;21.35;;
11305;SDS011;5708;50.660;6.778;2022-11-20T09:59:14;41.05;;;20.00;;
11305;SDS011;5708;50.660;6.778;2022-11-20T10:01:48;42.38;;;20.73;;
11305;SDS011;5708;50.660;6.778;2022-11-20T10:04:18;39.58;;;19.30;;
11305;SDS011;5708;50.660;6.778;2022-11-20T10:06:56;41.47;;;21.15;;
11305;SDS011;5708;50.660;6.778;2022-11-20T10:09:29;41.60;;;20.25;;
11305;SDS011;5708;50.660;6.778;2022-11-20T10:12:18;42.50;;;21.27;;
11305;SDS011;5708;50.660;6.778;2022-11-20T10:14:53;40.53;;;19.60;;
11305;SDS011;5708;50.660;6.778;2022-11-20T10:17:50;43.15;;;20.38;;
11305;SDS011;5708;50.660;6.778;2022-11-20T10:23:29;40.97;;;19.90;;
11305;SDS011;5708;50.660;6.778;2022-11-20T10:26:03;38.70;;;19.05;;
11305;SDS011;5708;50.660;6.778;2022-11-20T10:31:28;42.30;;;20.15;;
11305;SDS011;5708;50.660;6.778;2022-11-20T10:33:57;40.83;;;20.42;;
11305;SDS011;5708;50.660;6.778;2022-11-20T10:36:26;39.22;;;20.35;;
11305;SDS011;5708;50.660;6.778;2022-11-20T10:39:16;41.80;;;20.83;;
11305;SDS011;5708;50.660;6.778;2022-11-20T10:41:43;43.53;;;20.63;;
11305;SDS011;5708;50.660;6.778;2022-11-20T10:44:14;37.90;;;19.27;;
11305;SDS011;5708;50.660;6.778;2022-11-20T10:47:01;40.58;;;20.95;;
11305;SDS011;5708;50.660;6.778;2022-11-20T10:49:29;42.83;;;20.27;;
11305;SDS011;5708;50.660;6.778;2022-11-20T10:55:04;40.35;;;20.40;;
11305;SDS011;5708;50.660;6.778;2022-11-20T11:00:23;40.80;;;19.20;;
11305;SDS011;5708;50.660;6.778;2022-11-20T11:02:50;40.88;;;19.42;;
11305;SDS011;5708;50.660;6.778;2022-11-20T11:07:45;40.30;;;19.73;;
11305;SDS011;5708;50.660;6.778;2022-11-20T11:10:18;38.45;;;19.63;;
11305;SDS011;5708;50.660;6.778;2022-11-20T11:12:46;42.85;;;21.20;;
11305;SDS011;5708;50.660;6.778;2022-11-20T11:15:58;41.85;;;19.65;;
11305;SDS011;5708;50.660;6.778;2022-11-20T11:18:03;39.45;;;19.83;;
11305;SDS011;5708;50.660;6.778;2022-11-20T11:20:28;42.70;;;21.27;;
11305;SDS011;5708;50.660;6.778;2022-11-20T11:22:57;43.38;;;21.02;;
11305;SDS011;5708;50.660;6.778;2022-11-20T11:25:25;43.78;;;22.95;;
11305;SDS011;5708;50.660;6.778;2022-11-20T11:27:52;45.65;;;22.83;;
11305;SDS011;5708;50.660;6.778;2022-11-20T11:30:20;43.22;;;21.98;;
11305;SDS011;5708;50.660;6.778;2022-11-20T11:32:47;43.20;;;21.30;;
11305;SDS011;5708;50.660;6.778;2022-11-20T11:35:47;43.72;;;20.90;;
11305;SDS011;5708;50.660;6.778;2022-11-20T11:38:54;45.40;;;22.45;;
11305;SDS011;5708;50.660;6.778;2022-11-20T11:41:01;42.28;;;20.13;;
11305;SDS011;5708;50.660;6.778;2022-11-20T11:43:36;41.75;;;21.33;;
11305;SDS011;5708;50.660;6.778;2022-11-20T11:48:59;45.05;;;22.48;;
11305;SDS011;5708;50.660;6.778;2022-11-20T11:51:47;47.22;;;23.02;;
11305;SDS011;5708;50.660;6.778;2022-11-20T11:57:01;49.13;;;21.90;;
11305;SDS011;5708;50.660;6.778;2022-11-20T11:59:49;43.25;;;21.42;;
11305;SDS011;5708;50.660;6.778;2022-11-20T12:05:18;38.95;;;19.63;;
11305;SDS011;5708;50.660;6.778;2022-11-20T12:07:52;43.03;;;20.83;;
11305;SDS011;5708;50.660;6.778;2022-11-20T12:10:23;42.90;;;21.55;;
11305;SDS011;5708;50.660;6.778;2022-11-20T12:13:01;45.60;;;21.48;;
11305;SDS011;5708;50.660;6.778;2022-11-20T12:15:30;41.58;;;21.00;;
11305;SDS011;5708;50.660;6.778;2022-11-20T12:17:56;46.08;;;22.55;;
11305;SDS011;5708;50.660;6.778;2022-11-20T12:20:24;46.97;;;22.13;;
11305;SDS011;5708;50.660;6.778;2022-11-20T12:25:26;49.60;;;23.70;;
11305;SDS011;5708;50.660;6.778;2022-11-20T12:36:37;42.10;;;19.77;;
11305;SDS011;5708;50.660;6.778;2022-11-20T12:42:20;37.13;;;19.25;;
11305;SDS011;5708;50.660;6.778;2022-11-20T12:45:12;38.03;;;19.88;;
11305;SDS011;5708;50.660;6.778;2022-11-20T12:52:52;37.95;;;18.88;;
11305;SDS011;5708;50.660;6.778;2022-11-20T12:55:23;39.05;;;19.65;;
11305;SDS011;5708;50.660;6.778;2022-11-20T13:04:06;39.58;;;18.70;;
11305;SDS011;5708;50.660;6.778;2022-11-20T13:06:37;36.00;;;17.67;;
11305;SDS011;5708;50.660;6.778;2022-11-20T13:09:06;37.20;;;18.58;;
11305;SDS011;5708;50.660;6.778;2022-11-20T13:11:37;36.30;;;19.50;;
11305;SDS011;5708;50.660;6.778;2022-11-20T13:16:52;38.97;;;18.65;;
11305;SDS011;5708;50.660;6.778;2022-11-20T13:19:22;33.75;;;18.38;;
11305;SDS011;5708;50.660;6.778;2022-11-20T13:21:48;37.70;;;18.65;;
11305;SDS011;5708;50.660;6.778;2022-11-20T13:26:58;38.60;;;19.65;;
11305;SDS011;5708;50.660;6.778;2022-11-20T13:29:31;37.85;;;18.60;;
11305;SDS011;5708;50.660;6.778;2022-11-20T13:34:37;34.65;;;18.42;;
11305;SDS011;5708;50.660;6.778;2022-11-20T13:37:02;38.30;;;18.45;;
11305;SDS011;5708;50.660;6.778;2022-11-20T13:39:35;36.53;;;18.23;;
11305;SDS011;5708;50.660;6.778;2022-11-20T13:44:41;33.38;;;17.27;;
11305;SDS011;5708;50.660;6.778;2022-11-20T13:47:25;33.60;;;17.27;;
11305;SDS011;5708;50.660;6.778;2022-11-20T13:49:51;39.80;;;18.73;;
11305;SDS011;5708;50.660;6.778;2022-11-20T14:00:57;36.53;;;16.98;;
11305;SDS011;5708;50.660;6.778;2022-11-20T14:03:25;26.83;;;14.07;;
11305;SDS011;5708;50.660;6.778;2022-11-20T14:05:59;25.45;;;13.07;;
11305;SDS011;5708;50.660;6.778;2022-11-20T14:08:31;24.25;;;12.05;;
11305;SDS011;5708;50.660;6.778;2022-11-20T14:11:12;16.58;;;5.35;;
11305;SDS011;5708;50.660;6.778;2022-11-20T14:13:50;9.50;;;2.38;;
11305;SDS011;5708;50.660;6.778;2022-11-20T14:16:23;7.88;;;2.45;;
11305;SDS011;5708;50.660;6.778;2022-11-20T14:18:49;7.53;;;1.90;;
11305;SDS011;5708;50.660;6.778;2022-11-20T14:21:48;5.50;;;1.70;;
11305;SDS011;5708;50.660;6.778;2022-11-20T14:24:07;6.60;;;2.60;;
11305;SDS011;5708;50.660;6.778;2022-11-20T14:26:35;10.43;;;3.17;;
11305;SDS011;5708;50.660;6.778;2022-11-20T14:29:15;4.05;;;1.80;;
11305;SDS011;5708;50.660;6.778;2022-11-20T14:31:42;4.88;;;2.00;;
11305;SDS011;5708;50.660;6.778;2022-11-20T14:34:15;4.13;;;1.50;;
11305;SDS011;5708;50.660;6.778;2022-11-20T14:36:42;4.80;;;1.20;;
11305;SDS011;5708;50.660;6.778;2022-11-20T14:39:10;4.22;;;1.08;;
11305;SDS011;5708;50.660;6.778;2022-11-20T14:41:36;4.53;;;1.50;;
11305;SDS011;5708;50.660;6.778;2022-11-20T14:44:01;3.60;;;1.45;;
11305;SDS011;5708;50.660;6.778;2022-11-20T14:46:27;3.42;;;1.23;;
11305;SDS011;5708;50.660;6.778;2022-11-20T14:48:56;3.92;;;1.60;;
11305;SDS011;5708;50.660;6.778;2022-11-20T14:51:27;4.88;;;1.83;;
11305;SDS011;5708;50.660;6.778;2022-11-20T14:57:00;4.80;;;1.63;;
11305;SDS011;5708;50.660;6.778;2022-11-20T14:59:28;3.60;;;1.10;;
11305;SDS011;5708;50.660;6.778;2022-11-20T15:01:58;2.90;;;1.17;;
11305;SDS011;5708;50.660;6.778;2022-11-20T15:04:28;4.65;;;1.67;;
11305;SDS011;5708;50.660;6.778;2022-11-20T15:06:54;7.07;;;1.90;;
11305;SDS011;5708;50.660;6.778;2022-11-20T15:09:20;4.68;;;1.65;;
11305;SDS011;5708;50.660;6.778;2022-11-20T15:11:57;4.20;;;1.80;;
11305;SDS011;5708;50.660;6.778;2022-11-20T15:14:24;5.10;;;1.83;;
11305;SDS011;5708;50.660;6.778;2022-11-20T15:16:50;4.43;;;1.77;;
11305;SDS011;5708;50.660;6.778;2022-11-20T15:19:17;3.67;;;1.52;;
11305;SDS011;5708;50.660;6.778;2022-11-20T15:21:44;7.32;;;1.95;;
11305;SDS011;5708;50.660;6.778;2022-11-20T15:24:09;6.32;;;2.03;;
11305;SDS011;5708;50.660;6.778;2022-11-20T15:26:35;4.20;;;1.92;;
11305;SDS011;5708;50.660;6.778;2022-11-20T15:29:00;6.97;;;1.80;;
11305;SDS011;5708;50.660;6.778;2022-11-20T15:31:25;4.35;;;1.70;;
11305;SDS011;5708;50.660;6.778;2022-11-20T15:33:51;7.60;;;2.15;;
11305;SDS011;5708;50.660;6.778;2022-11-20T15:36:16;5.55;;;1.83;;
11305;SDS011;5708;50.660;6.778;2022-11-20T15:38:41;5.80;;;2.00;;
11305;SDS011;5708;50.660;6.778;2022-11-20T15:41:07;5.13;;;2.10;;
11305;SDS011;5708;50.660;6.778;2022-11-20T15:43:33;7.80;;;2.72;;
11305;SDS011;5708;50.660;6.778;2022-11-20T15:48:35;7.45;;;3.33;;
11305;SDS011;5708;50.660;6.778;2022-11-20T15:51:11;8.25;;;3.28;;
11305;SDS011;5708;50.660;6.778;2022-11-20T15:53:43;7.50;;;3.45;;
11305;SDS011;5708;50.660;6.778;2022-11-20T15:56:11;8.05;;;3.03;;
11305;SDS011;5708;50.660;6.778;2022-11-20T15:58:37;6.72;;;2.80;;
11305;SDS011;5708;50.660;6.778;2022-11-20T16:01:02;6.10;;;2.47;;
11305;SDS011;5708;50.660;6.778;2022-11-20T16:03:28;5.82;;;2.30;;
11305;SDS011;5708;50.660;6.778;2022-11-20T16:05:53;11.80;;;3.33;;
11305;SDS011;5708;50.660;6.778;2022-11-20T16:08:18;7.40;;;2.55;;
11305;SDS011;5708;50.660;6.778;2022-11-20T16:10:43;6.32;;;2.53;;
11305;SDS011;5708;50.660;6.778;2022-11-20T16:13:13;8.07;;;4.28;;